LatviaFixed distance
Cesis Eco Trail
6 Aug2016
Distance
81km
Finishers
11588 men27 women
Winning time
6:11:06h
Median pace
8.04km/h
Pace distribution
115 finishers · 5.77–13.10 km/h · mean 8.19
Every finisher ran the same 81 km course, so these paces are directly comparable.
Histogram of finisher pace. 115 finishers ranged from 5.77 to 13.10 kilometres per hour, with a mean of 8.19 and a median of 8.04. The busiest band is 7.5 to 8.0 kilometres per hour, with 20 finishers.
Results
Ranks 51–100 of 115
| Rank | Runner | Time | Pace | Cat. | Placing |
|---|---|---|---|---|---|
| 51 | *Rīga | 9:49:52h | 8.24 | M23 | 44th M · 25th M23 |
| 52 | VSK Noskrien / DDB | 9:50:11h | 8.23 | M23 | 45th M · 26th M23 |
| 53 | 9:52:35h | 8.20 | M40 | 46th M · 9th M40 | |
| 54 | *Ādaži | 9:54:39h | 8.17 | M35 | 47th M · 5th M35 |
| 55 | VSK Noskrien | 9:54:46h | 8.17 | M40 | 48th M · 10th M40 |
| 56 | 9:55:30h | 8.16 | M35 | 49th M · 6th M35 | |
| 57 | *Ventspils | 10:03:01h | 8.06 | M50 | 50th M · 4th M50 |
| 58 | Surikati | 10:04:18h | 8.04 | W23 | 8th F · 5th W23 |
| 59 | Amber Race / Elevation | 10:06:27h | 8.01 | W35 | 9th F · 3rd W35 |
| 60 | *Babīte | 10:06:27h | 8.01 | M35 | 51st M · 7th M35 |
| 61 | Suusahullud | 10:08:30h | 7.99 | M45 | 52nd M · 3rd M45 |
| 62 | 10:09:07h | 7.98 | W40 | 10th F · 2nd W40 | |
| 63 | SIA | 10:18:11h | 7.86 | M23 | 53rd M · 27th M23 |
| 64 | *Rīga | 10:19:23h | 7.85 | W23 | 11th F · 6th W23 |
| 65 | VSK Noskrien | 10:19:31h | 7.84 | M23 | 54th M · 28th M23 |
| 66 | Coca-Cola HBC Latvija | 10:20:54h | 7.83 | M35 | 55th M · 8th M35 |
| 67 | *Christchurch | 10:22:11h | 7.81 | M35 | 56th M · 9th M35 |
| 68 | Avots | 10:23:59h | 7.79 | M45 | 57th M · 4th M45 |
| 69 | VSK Noskrien | 10:24:42h | 7.78 | M23 | 58th M · 29th M23 |
| 70 | VSK Noskrien | 10:28:53h | 7.73 | W40 | 12th F · 3rd W40 |
| 71 | 10:30:36h | 7.71 | M45 | 59th M · 5th M45 | |
| 72 | 2 Koki UN Citi Zvēri/V... | 10:33:27h | 7.67 | M23 | 60th M · 30th M23 |
| 73 | Vellapēda | 10:40:27h | 7.59 | M23 | 61st M · 31st M23 |
| 74 | SK Tērauds | 10:42:32h | 7.56 | M55 | 62nd M · 2nd M55 |
| 75 | VSK Noskrien Vāveres | 10:43:13h | 7.56 | W35 | 13th F · 4th W35 |
| 76 | VSK Noskrien | 10:43:17h | 7.55 | M35 | 63rd M · 10th M35 |
| 77 | Kinetics | 10:43:59h | 7.55 | M40 | 64th M · 11th M40 |
| 78 | 10:43:59h | 7.55 | M23 | 64th M · 32nd M23 | |
| 79 | VSK Noskrien / Pabaso.LV | 10:44:48h | 7.54 | W23 | 14th F · 7th W23 |
| 80 | Sporta Akadēmija | 10:47:26h | 7.51 | MU23 | 66th M · 2nd MU23 |
| 81 | Isostar | 10:55:00h | 7.42 | W35 | 15th F · 5th W35 |
| 82 | Carnikavas Sporta Centrs | 11:02:00h | 7.34 | M65 | 67th M · 1st M65 |
| 83 | *Allaži | 11:04:51h | 7.31 | M40 | 68th M · 12th M40 |
| 84 | VSK Noskrien | 11:04:56h | 7.31 | W23 | 16th F · 8th W23 |
| 85 | Veikals 42Km195M | 11:10:02h | 7.25 | M23 | 69th M · 33rd M23 |
| 86 | VSK Noskrien/Divplākšņi | 11:16:12h | 7.19 | W23 | 17th F · 9th W23 |
| 87 | Pēdu NAV | 11:25:31h | 7.09 | W40 | 18th F · 4th W40 |
| 88 | 11:25:31h | 7.09 | M40 | 70th M · 13th M40 | |
| 89 | *Rīga | 11:26:17h | 7.08 | W23 | 19th F · 10th W23 |
| 90 | Autolevi Savstarpējā A... | 11:30:03h | 7.04 | M23 | 71st M · 34th M23 |
| 91 | VSK Noskrien | 11:31:27h | 7.03 | M35 | 72nd M · 11th M35 |
| 92 | Mana Mīļākā Komanda | 11:42:19h | 6.92 | M23 | 73rd M · 35th M23 |
| 93 | German Embassy | 11:55:38h | 6.79 | M23 | 74th M · 36th M23 |
| 94 | VSK Noskrien | 11:56:55h | 6.78 | M35 | 75th M · 12th M35 |
| 95 | www.Endo.LV | 11:57:33h | 6.77 | M23 | 76th M · 37th M23 |
| 96 | LSC | 11:58:04h | 6.77 | M60 | 77th M · 1st M60 |
| 97 | VSK Noskrien | 11:59:18h | 6.76 | W23 | 20th F · 11th W23 |
| 98 | VSK Noskrien | 12:09:23h | 6.66 | W23 | 21st F · 12th W23 |
| 99 | VSK Noskrien | 12:09:24h | 6.66 | W35 | 22nd F · 6th W35 |
| 100 | Ozolnieki | 12:10:52h | 6.65 | M60 | 78th M · 2nd M60 |
- 51*Rīga44th M · 25th M23Time9:49:52hPace8.24Cat.M23
- 52VSK Noskrien / DDB45th M · 26th M23Time9:50:11hPace8.23Cat.M23
- 5346th M · 9th M40Time9:52:35hPace8.20Cat.M40
- 54*Ādaži47th M · 5th M35Time9:54:39hPace8.17Cat.M35
- 55VSK Noskrien48th M · 10th M40Time9:54:46hPace8.17Cat.M40
- 5649th M · 6th M35Time9:55:30hPace8.16Cat.M35
- 57*Ventspils50th M · 4th M50Time10:03:01hPace8.06Cat.M50
- 58Surikati8th F · 5th W23Time10:04:18hPace8.04Cat.W23
- 59Amber Race / Elevation9th F · 3rd W35Time10:06:27hPace8.01Cat.W35
- 60*Babīte51st M · 7th M35Time10:06:27hPace8.01Cat.M35
- 61Suusahullud52nd M · 3rd M45Time10:08:30hPace7.99Cat.M45
- 6210th F · 2nd W40Time10:09:07hPace7.98Cat.W40
- 63SIA53rd M · 27th M23Time10:18:11hPace7.86Cat.M23
- 64*Rīga11th F · 6th W23Time10:19:23hPace7.85Cat.W23
- 65VSK Noskrien54th M · 28th M23Time10:19:31hPace7.84Cat.M23
- 66Coca-Cola HBC Latvija55th M · 8th M35Time10:20:54hPace7.83Cat.M35
- 67*Christchurch56th M · 9th M35Time10:22:11hPace7.81Cat.M35
- 68Avots57th M · 4th M45Time10:23:59hPace7.79Cat.M45
- 69VSK Noskrien58th M · 29th M23Time10:24:42hPace7.78Cat.M23
- 70VSK Noskrien12th F · 3rd W40Time10:28:53hPace7.73Cat.W40
- 7159th M · 5th M45Time10:30:36hPace7.71Cat.M45
- 722 Koki UN Citi Zvēri/V...60th M · 30th M23Time10:33:27hPace7.67Cat.M23
- 73Vellapēda61st M · 31st M23Time10:40:27hPace7.59Cat.M23
- 74SK Tērauds62nd M · 2nd M55Time10:42:32hPace7.56Cat.M55
- 75VSK Noskrien Vāveres13th F · 4th W35Time10:43:13hPace7.56Cat.W35
- 76VSK Noskrien63rd M · 10th M35Time10:43:17hPace7.55Cat.M35
- 77Kinetics64th M · 11th M40Time10:43:59hPace7.55Cat.M40
- 7864th M · 32nd M23Time10:43:59hPace7.55Cat.M23
- 79VSK Noskrien / Pabaso.LV14th F · 7th W23Time10:44:48hPace7.54Cat.W23
- 80Sporta Akadēmija66th M · 2nd MU23Time10:47:26hPace7.51Cat.MU23
- 81Isostar15th F · 5th W35Time10:55:00hPace7.42Cat.W35
- 82Carnikavas Sporta Centrs67th M · 1st M65Time11:02:00hPace7.34Cat.M65
- 83*Allaži68th M · 12th M40Time11:04:51hPace7.31Cat.M40
- 84VSK Noskrien16th F · 8th W23Time11:04:56hPace7.31Cat.W23
- 85Veikals 42Km195M69th M · 33rd M23Time11:10:02hPace7.25Cat.M23
- 86VSK Noskrien/Divplākšņi17th F · 9th W23Time11:16:12hPace7.19Cat.W23
- 87Pēdu NAV18th F · 4th W40Time11:25:31hPace7.09Cat.W40
- 8870th M · 13th M40Time11:25:31hPace7.09Cat.M40
- 89*Rīga19th F · 10th W23Time11:26:17hPace7.08Cat.W23
- 90Autolevi Savstarpējā A...71st M · 34th M23Time11:30:03hPace7.04Cat.M23
- 91VSK Noskrien72nd M · 11th M35Time11:31:27hPace7.03Cat.M35
- 92Mana Mīļākā Komanda73rd M · 35th M23Time11:42:19hPace6.92Cat.M23
- 93German Embassy74th M · 36th M23Time11:55:38hPace6.79Cat.M23
- 94VSK Noskrien75th M · 12th M35Time11:56:55hPace6.78Cat.M35
- 95www.Endo.LV76th M · 37th M23Time11:57:33hPace6.77Cat.M23
- 96LSC77th M · 1st M60Time11:58:04hPace6.77Cat.M60
- 97VSK Noskrien20th F · 11th W23Time11:59:18hPace6.76Cat.W23
- 98VSK Noskrien21st F · 12th W23Time12:09:23hPace6.66Cat.W23
- 99VSK Noskrien22nd F · 6th W35Time12:09:24hPace6.66Cat.W35
- 100Ozolnieki78th M · 2nd M60Time12:10:52hPace6.65Cat.M60
Showing ranks 51–100 of 115